Time;durP1;ratioP1;P1;durP2;ratioP2;P2;SDS_P1;SDS_P2;PMS_P1;PMS_P2;Temp;Humidity;BMP_temperature;BMP_pressure;BME280_temperature;BME280_humidity;BME280_pressure;Samples;Min_cycle;Max_cycle;Signal;HPM_P1;HPM_P2
2022/12/20 00:01:08;;;;;;;70.63;50.35;;;15.50;60.00;;;;;;4948668;28;88529;-48
2022/12/20 00:03:33;;;;;;;71.45;50.80;;;15.50;60.00;;;;;;4943208;28;87836;-51
2022/12/20 00:05:59;;;;;;;70.70;50.38;;;15.50;60.00;;;;;;4946305;28;85369;-52
2022/12/20 00:08:25;;;;;;;71.47;50.90;;;15.40;60.00;;;;;;4946588;28;86422;-53
2022/12/20 00:10:50;;;;;;;71.45;50.53;;;15.40;60.00;;;;;;4948343;28;86308;-52
2022/12/20 00:13:16;;;;;;;71.78;50.67;;;15.40;60.10;;;;;;4944766;28;85644;-52
2022/12/20 00:15:41;;;;;;;71.57;50.95;;;15.40;60.10;;;;;;4938824;28;85338;-52
2022/12/20 00:18:07;;;;;;;72.18;51.08;;;15.40;60.00;;;;;;4944714;28;87984;-49
2022/12/20 00:20:33;;;;;;;72.47;50.80;;;15.40;60.10;;;;;;4946533;28;85089;-48
2022/12/20 00:22:58;;;;;;;70.70;50.53;;;15.40;60.10;;;;;;4949417;28;86131;-53
2022/12/20 00:25:24;;;;;;;71.35;50.58;;;15.40;60.10;;;;;;4944201;28;85397;-48
2022/12/20 00:27:50;;;;;;;71.28;50.60;;;15.30;60.10;;;;;;4946130;28;85546;-53
2022/12/20 00:30:16;;;;;;;70.90;50.25;;;15.30;60.10;;;;;;4948822;28;88627;-52
2022/12/20 00:32:43;;;;;;;70.50;50.42;;;15.30;60.10;;;;;;4947215;28;87100;-50
2022/12/20 00:35:10;;;;;;;72.22;51.05;;;15.30;60.10;;;;;;4948113;28;85312;-52
2022/12/20 00:37:36;;;;;;;71.50;50.50;;;15.30;60.20;;;;;;4948075;28;85952;-50
2022/12/20 00:40:03;;;;;;;71.82;50.97;;;15.30;60.20;;;;;;4956888;28;87412;-49
2022/12/20 00:42:29;;;;;;;71.43;50.60;;;15.30;60.30;;;;;;4945976;28;87427;-49
2022/12/20 00:44:55;;;;;;;71.32;50.63;;;15.30;60.40;;;;;;4944679;28;87072;-51
2022/12/20 00:47:20;;;;;;;70.93;50.30;;;15.30;60.40;;;;;;4948991;28;85764;-52
2022/12/20 00:49:46;;;;;;;70.60;50.30;;;15.20;60.30;;;;;;4948776;28;87023;-51
2022/12/20 00:52:11;;;;;;;70.22;50.40;;;15.20;60.30;;;;;;4949695;28;87218;-53
2022/12/20 00:54:37;;;;;;;71.18;50.58;;;15.20;60.30;;;;;;4951886;28;85707;-52
2022/12/20 00:57:03;;;;;;;71.13;50.65;;;15.20;60.30;;;;;;4949705;28;87923;-52
2022/12/20 00:59:28;;;;;;;70.95;50.60;;;15.20;60.40;;;;;;4941288;28;85689;-51
2022/12/20 01:01:54;;;;;;;70.28;50.38;;;15.20;60.30;;;;;;4944488;28;86504;-49
2022/12/20 01:04:20;;;;;;;71.57;50.58;;;15.20;60.40;;;;;;4940828;28;89656;-52
2022/12/20 01:06:45;;;;;;;70.45;50.47;;;15.20;60.40;;;;;;4938160;28;88928;-51
2022/12/20 01:09:11;;;;;;;70.55;50.75;;;15.20;60.30;;;;;;4941099;28;87111;-52
2022/12/20 01:11:38;;;;;;;70.10;50.63;;;15.20;60.30;;;;;;4952415;28;86150;-52
2022/12/20 01:14:10;;;;;;;70.63;50.40;;;15.20;60.30;;;;;;4941673;28;86127;-51
2022/12/20 01:16:41;;;;;;;70.40;50.05;;;15.20;60.40;;;;;;4943351;28;85627;-52
2022/12/20 01:19:10;;;;;;;69.75;50.22;;;15.20;60.40;;;;;;4937917;28;85171;-49
2022/12/20 01:21:38;;;;;;;70.80;50.38;;;15.10;60.40;;;;;;4942456;28;86462;-49
2022/12/20 01:24:04;;;;;;;71.32;50.53;;;15.20;60.40;;;;;;4961889;28;85633;-50
2022/12/20 01:26:30;;;;;;;70.30;50.67;;;15.10;60.40;;;;;;4947525;28;86351;-51
2022/12/20 01:28:58;;;;;;;71.15;50.47;;;15.20;60.50;;;;;;4947177;28;85110;-52
2022/12/20 01:31:24;;;;;;;70.90;50.53;;;15.10;60.40;;;;;;4938044;28;85669;-52
2022/12/20 01:33:51;;;;;;;71.43;50.75;;;15.10;60.50;;;;;;4946547;28;87160;-51
2022/12/20 01:36:20;;;;;;;71.20;50.55;;;15.10;60.50;;;;;;4950013;28;86709;-47
2022/12/20 01:38:46;;;;;;;70.72;50.80;;;15.10;60.40;;;;;;4943664;28;86672;-52
2022/12/20 01:41:20;;;;;;;70.72;50.42;;;15.10;60.50;;;;;;4945407;28;86174;-51
2022/12/20 01:43:51;;;;;;;70.00;50.33;;;15.10;60.50;;;;;;4945121;28;88924;-52
2022/12/20 01:46:18;;;;;;;;;;;15.10;60.60;;;;;;4938608;28;85729;-52
2022/12/20 01:48:57;;;;;;;70.63;50.63;;;15.10;60.60;;;;;;4942966;28;84633;-51
2022/12/20 01:51:24;;;;;;;69.97;50.33;;;15.10;60.90;;;;;;4936161;28;87784;-52
2022/12/20 01:53:59;;;;;;;71.00;50.55;;;15.10;60.70;;;;;;4949396;28;85377;-50
2022/12/20 01:56:24;;;;;;;70.82;50.28;;;15.10;60.60;;;;;;4942150;28;85586;-50
2022/12/20 01:58:53;;;;;;;71.32;50.47;;;15.10;60.60;;;;;;4945992;28;85022;-50
2022/12/20 02:01:21;;;;;;;70.32;50.20;;;15.10;60.60;;;;;;4946431;28;85465;-51
2022/12/20 02:03:50;;;;;;;71.90;50.35;;;15.10;60.60;;;;;;4949900;28;86662;-51
2022/12/20 02:06:22;;;;;;;71.20;50.38;;;15.00;60.70;;;;;;4942088;28;86015;-50
2022/12/20 02:08:51;;;;;;;70.78;50.35;;;15.10;60.70;;;;;;4945065;28;91285;-53
2022/12/20 02:11:45;;;;;;;70.93;50.33;;;15.00;60.60;;;;;;4945909;28;87740;-53
2022/12/20 02:14:22;;;;;;;70.63;50.67;;;15.10;60.60;;;;;;4939106;28;88481;-50
2022/12/20 02:17:05;;;;;;;70.25;50.50;;;15.00;60.50;;;;;;4938249;28;89012;-53
2022/12/20 02:19:49;;;;;;;70.35;50.47;;;15.10;60.60;;;;;;4950017;28;85439;-50
2022/12/20 02:22:30;;;;;;;72.00;50.50;;;15.00;60.60;;;;;;4943922;28;87621;-53
2022/12/20 02:25:24;;;;;;;69.82;50.40;;;15.00;60.60;;;;;;4945224;28;87229;-51
2022/12/20 02:28:08;;;;;;;69.78;50.22;;;15.00;60.60;;;;;;4950774;28;86264;-52
2022/12/20 02:30:38;;;;;;;70.38;50.60;;;15.00;60.50;;;;;;4949630;28;88191;-51
2022/12/20 02:33:09;;;;;;;70.63;50.13;;;15.00;60.60;;;;;;4954726;28;86392;-50
2022/12/20 02:35:36;;;;;;;;;;;15.00;60.60;;;;;;4947821;28;85636;-50
2022/12/20 02:38:29;;;;;;;70.03;50.40;;;15.00;60.70;;;;;;4952508;28;84565;-51
2022/12/20 02:41:18;;;;;;;69.72;50.35;;;15.00;60.60;;;;;;4950241;28;85838;-49
2022/12/20 02:46:34;;;;;;;69.75;50.30;;;15.00;60.60;;;;;;4944394;28;86521;-50
2022/12/20 02:49:03;;;;;;;70.95;50.45;;;15.00;60.60;;;;;;4954192;28;85818;-52
2022/12/20 02:51:32;;;;;;;69.65;50.20;;;15.00;60.80;;;;;;4951326;28;85384;-50
2022/12/20 02:53:58;;;;;;;70.35;50.58;;;15.00;60.80;;;;;;4953486;28;88590;-51
2022/12/20 02:56:30;;;;;;;69.82;50.33;;;15.00;60.80;;;;;;4935459;28;88395;-52
2022/12/20 02:59:10;;;;;;;69.80;50.10;;;15.00;60.80;;;;;;4951859;28;85337;-53
2022/12/20 03:01:43;;;;;;;69.82;49.95;;;15.00;60.70;;;;;;4942082;28;85471;-54
2022/12/20 03:04:10;;;;;;;70.95;50.60;;;15.00;60.80;;;;;;4943583;28;86759;-51
2022/12/20 03:06:35;;;;;;;70.47;50.25;;;15.00;60.90;;;;;;4935710;28;87542;-51
2022/12/20 03:09:01;;;;;;;70.60;50.22;;;14.90;60.80;;;;;;4946594;28;85650;-54
2022/12/20 03:11:27;;;;;;;70.22;50.25;;;15.00;60.90;;;;;;4939992;28;88486;-51
2022/12/20 03:13:53;;;;;;;71.03;50.40;;;15.00;60.80;;;;;;4941894;28;90207;-51
2022/12/20 03:16:18;;;;;;;69.70;50.10;;;14.90;60.70;;;;;;4942678;28;85082;-52
2022/12/20 03:18:44;;;;;;;70.07;50.30;;;14.90;60.80;;;;;;4950730;28;91779;-54
2022/12/20 03:21:11;;;;;;;71.00;50.47;;;14.90;60.70;;;;;;4944338;28;86313;-54
2022/12/20 03:23:36;;;;;;;70.85;50.25;;;14.90;60.70;;;;;;4945873;28;86295;-52
2022/12/20 03:26:02;;;;;;;72.00;51.08;;;14.90;60.70;;;;;;4942451;28;85917;-51
2022/12/20 03:28:28;;;;;;;70.55;50.17;;;14.90;60.70;;;;;;4950788;28;85937;-47
2022/12/20 03:30:53;;;;;;;70.15;50.53;;;14.90;60.80;;;;;;4948881;28;85450;-50
2022/12/20 03:33:19;;;;;;;70.30;50.38;;;14.90;60.70;;;;;;4940869;28;85608;-51
2022/12/20 03:35:46;;;;;;;70.25;50.60;;;14.90;60.70;;;;;;4938533;28;86443;-53
2022/12/20 03:38:12;;;;;;;70.93;50.25;;;14.90;60.70;;;;;;4943567;28;90363;-52
2022/12/20 03:40:38;;;;;;;71.18;50.78;;;14.90;60.80;;;;;;4936115;28;89649;-49
2022/12/20 03:43:03;;;;;;;70.97;51.05;;;14.90;60.70;;;;;;4936914;28;86074;-53
2022/12/20 03:45:29;;;;;;;70.35;50.38;;;14.90;60.70;;;;;;4947688;28;90951;-52
2022/12/20 03:47:55;;;;;;;71.63;50.50;;;14.90;60.80;;;;;;4952892;28;85501;-49
2022/12/20 03:50:20;;;;;;;70.18;50.20;;;14.90;60.80;;;;;;4941164;28;85592;-51
2022/12/20 03:52:46;;;;;;;71.13;50.25;;;14.90;60.90;;;;;;4944418;28;87205;-49
2022/12/20 03:55:15;;;;;;;70.30;50.20;;;14.90;60.90;;;;;;4948983;28;88399;-54
2022/12/20 03:57:41;;;;;;;70.07;50.28;;;14.90;60.90;;;;;;4939206;28;85465;-53
2022/12/20 04:00:07;;;;;;;70.28;50.20;;;14.90;60.80;;;;;;4944805;28;85382;-49
2022/12/20 04:02:33;;;;;;;69.55;50.10;;;14.90;61.00;;;;;;4941323;28;85658;-49
2022/12/20 04:04:59;;;;;;;70.18;50.38;;;14.90;60.90;;;;;;4939909;28;92507;-51
2022/12/20 04:07:25;;;;;;;70.43;50.45;;;14.90;61.00;;;;;;4939629;28;85930;-53
2022/12/20 04:09:50;;;;;;;69.85;50.67;;;14.90;60.90;;;;;;4940460;28;85619;-48
2022/12/20 04:12:16;;;;;;;70.35;50.20;;;14.80;60.90;;;;;;4948211;28;85768;-50
2022/12/20 04:14:42;;;;;;;69.97;50.40;;;14.80;60.90;;;;;;4935512;28;87810;-49
2022/12/20 04:17:07;;;;;;;70.38;50.17;;;14.80;60.90;;;;;;4941591;28;89049;-52
2022/12/20 04:19:33;;;;;;;69.47;50.30;;;14.80;60.90;;;;;;4954162;28;85491;-52
2022/12/20 04:21:59;;;;;;;69.72;50.20;;;14.80;61.00;;;;;;4949747;28;88995;-49
2022/12/20 04:24:24;;;;;;;69.32;50.20;;;14.80;61.10;;;;;;4944656;28;85681;-50
2022/12/20 04:26:50;;;;;;;70.00;50.15;;;14.80;61.00;;;;;;4948177;28;85655;-52
2022/12/20 04:29:16;;;;;;;70.30;50.15;;;14.80;61.00;;;;;;4952876;28;86726;-53
2022/12/20 04:31:41;;;;;;;69.95;50.15;;;14.80;61.00;;;;;;4940854;28;86912;-49
2022/12/20 04:34:07;;;;;;;69.88;50.25;;;14.80;61.10;;;;;;4943702;28;86570;-52
2022/12/20 04:36:33;;;;;;;70.00;50.75;;;14.80;61.10;;;;;;4938856;28;87363;-52
2022/12/20 04:38:59;;;;;;;70.05;49.92;;;14.80;61.20;;;;;;4953888;28;85339;-53
2022/12/20 04:41:25;;;;;;;70.22;50.10;;;14.80;61.20;;;;;;4950333;28;84984;-53
2022/12/20 04:43:54;;;;;;;69.40;50.38;;;14.70;61.20;;;;;;4948134;28;88504;-53
2022/12/20 04:46:21;;;;;;;70.18;50.25;;;14.80;61.20;;;;;;4937151;28;85914;-50
2022/12/20 04:48:47;;;;;;;70.03;50.28;;;14.80;61.30;;;;;;4946926;28;88004;-53
2022/12/20 04:51:12;;;;;;;70.07;50.08;;;14.80;61.20;;;;;;4946699;28;86581;-50
2022/12/20 04:53:47;;;;;;;70.60;50.55;;;14.80;61.30;;;;;;4947711;28;88083;-51
2022/12/20 04:56:15;;;;;;;70.43;50.47;;;14.80;61.20;;;;;;4939114;28;87245;-53
2022/12/20 04:58:41;;;;;;;70.13;50.22;;;14.80;61.20;;;;;;4940862;28;85629;-49
2022/12/20 05:01:07;;;;;;;71.30;50.05;;;14.80;61.20;;;;;;4945005;28;86643;-52
2022/12/20 05:03:34;;;;;;;69.18;50.30;;;14.80;61.30;;;;;;4937729;28;86054;-51
2022/12/20 05:05:59;;;;;;;70.03;50.20;;;14.80;61.40;;;;;;4950011;28;85259;-51
2022/12/20 05:08:25;;;;;;;70.50;50.70;;;14.80;61.30;;;;;;4934823;28;87414;-50
2022/12/20 05:10:51;;;;;;;69.53;49.92;;;14.70;61.20;;;;;;4957073;28;86150;-50
2022/12/20 05:13:16;;;;;;;70.20;50.53;;;14.70;61.30;;;;;;4941792;28;85446;-52
2022/12/20 05:15:42;;;;;;;71.10;50.33;;;14.70;61.30;;;;;;4949772;28;85324;-51
2022/12/20 05:18:08;;;;;;;70.10;50.53;;;14.70;61.30;;;;;;4940105;28;86736;-52
2022/12/20 05:20:34;;;;;;;69.72;50.20;;;14.70;61.30;;;;;;4944944;28;86188;-53
2022/12/20 05:28:32;;;;;;;71.90;50.33;;;14.70;61.30;;;;;;4958346;28;85944;-51
2022/12/20 05:30:59;;;;;;;70.03;50.42;;;14.70;61.50;;;;;;4938112;28;85091;-54
2022/12/20 05:33:25;;;;;;;69.68;50.20;;;14.70;61.40;;;;;;4947049;28;85945;-51
2022/12/20 05:35:51;;;;;;;70.57;50.50;;;14.70;61.40;;;;;;4942677;28;85684;-51
2022/12/20 05:38:17;;;;;;;69.45;50.20;;;14.70;61.30;;;;;;4944983;28;85947;-52
2022/12/20 05:40:43;;;;;;;69.55;50.30;;;14.70;61.30;;;;;;4939970;28;87065;-48
2022/12/20 05:43:10;;;;;;;70.25;50.22;;;14.70;61.30;;;;;;4949215;28;85974;-53
2022/12/20 05:45:36;;;;;;;70.07;50.08;;;14.80;61.30;;;;;;4959498;28;85761;-49
2022/12/20 05:48:01;;;;;;;69.80;50.05;;;14.70;61.20;;;;;;4941749;28;87989;-53
2022/12/20 05:50:27;;;;;;;72.10;50.15;;;14.70;61.30;;;;;;4948467;28;85129;-53
2022/12/20 05:52:53;;;;;;;70.38;50.45;;;14.70;61.50;;;;;;4931219;28;86828;-49
2022/12/20 05:55:18;;;;;;;69.80;50.28;;;14.70;61.60;;;;;;4934495;28;85739;-50
2022/12/20 05:57:44;;;;;;;71.35;49.97;;;14.70;61.90;;;;;;4937846;28;85808;-53
2022/12/20 06:00:11;;;;;;;70.15;50.30;;;14.80;62.00;;;;;;4937230;28;86211;-51
2022/12/20 06:02:37;;;;;;;73.03;50.40;;;14.80;62.00;;;;;;4939187;28;86150;-51
2022/12/20 06:05:03;;;;;;;71.40;50.20;;;14.80;62.10;;;;;;4947101;28;89388;-51
2022/12/20 06:07:29;;;;;;;72.28;50.25;;;14.80;62.00;;;;;;4946081;28;87287;-53
2022/12/20 06:09:55;;;;;;;74.82;50.92;;;14.80;62.00;;;;;;4939258;28;85386;-49
2022/12/20 06:12:21;;;;;;;72.10;50.28;;;14.80;62.10;;;;;;4943902;28;93980;-52
2022/12/20 06:14:47;;;;;;;74.82;50.38;;;14.80;62.50;;;;;;4943707;28;89000;-51
2022/12/20 06:17:13;;;;;;;73.43;50.78;;;14.80;63.40;;;;;;4949735;28;85708;-53
2022/12/20 06:19:40;;;;;;;74.70;51.22;;;14.80;62.80;;;;;;4946387;28;85524;-52
2022/12/20 06:22:07;;;;;;;70.50;50.28;;;14.80;62.70;;;;;;4947622;28;85885;-50
2022/12/20 06:24:33;;;;;;;75.35;50.25;;;14.80;62.50;;;;;;4956501;28;87517;-53
2022/12/20 06:26:59;;;;;;;76.43;50.53;;;14.80;62.50;;;;;;4950343;28;85258;-53
2022/12/20 06:29:25;;;;;;;70.80;50.20;;;14.80;62.50;;;;;;4955603;28;87078;-49
2022/12/20 06:31:50;;;;;;;72.85;50.95;;;14.80;62.30;;;;;;4944172;28;86027;-52
2022/12/20 06:34:17;;;;;;;73.78;50.65;;;14.80;62.40;;;;;;4946675;28;86804;-53
2022/12/20 06:36:42;;;;;;;80.97;51.13;;;14.80;62.40;;;;;;4953266;28;86016;-51
2022/12/20 06:39:08;;;;;;;77.60;50.20;;;14.80;63.20;;;;;;4951072;28;86209;-52
2022/12/20 06:41:34;;;;;;;72.15;50.63;;;14.80;63.40;;;;;;4937547;28;89920;-53
2022/12/20 06:44:00;;;;;;;78.80;50.65;;;14.80;63.60;;;;;;4944582;28;89570;-51
2022/12/20 06:46:26;;;;;;;74.43;50.92;;;14.80;63.80;;;;;;4944941;28;85778;-53
2022/12/20 06:48:52;;;;;;;74.57;50.83;;;14.80;63.50;;;;;;4945138;28;86555;-49
2022/12/20 06:51:18;;;;;;;75.97;50.67;;;14.80;63.80;;;;;;4952405;28;87426;-49
2022/12/20 06:53:44;;;;;;;75.45;50.83;;;14.80;64.30;;;;;;4951836;28;86797;-53
2022/12/20 06:56:09;;;;;;;75.75;51.13;;;14.70;64.10;;;;;;4946943;28;87651;-52
2022/12/20 06:58:35;;;;;;;74.47;51.00;;;14.70;64.10;;;;;;4954157;28;87581;-56
2022/12/20 07:01:01;;;;;;;74.00;50.50;;;14.70;64.10;;;;;;4951106;28;85552;-51
2022/12/20 07:03:26;;;;;;;76.25;51.33;;;14.70;64.10;;;;;;4948600;28;86970;-53
2022/12/20 07:05:53;;;;;;;75.80;50.80;;;14.70;64.00;;;;;;4953534;28;86356;-53
2022/12/20 07:08:19;;;;;;;73.22;50.30;;;14.60;63.90;;;;;;4945523;28;86005;-49
2022/12/20 07:10:45;;;;;;;73.63;50.97;;;14.60;63.90;;;;;;4947110;28;86603;-48
2022/12/20 07:13:11;;;;;;;71.15;50.63;;;14.60;63.90;;;;;;4952153;28;89583;-52
2022/12/20 07:15:36;;;;;;;73.50;50.65;;;14.60;64.00;;;;;;4957385;28;85226;-49
2022/12/20 07:18:02;;;;;;;80.45;50.53;;;14.60;63.80;;;;;;4944441;28;86017;-54
2022/12/20 07:20:28;;;;;;;75.45;51.03;;;14.60;63.70;;;;;;4941160;28;88482;-49
2022/12/20 07:22:54;;;;;;;77.57;50.75;;;14.60;63.70;;;;;;4949159;28;90905;-50
2022/12/20 07:25:20;;;;;;;71.13;49.95;;;14.60;63.70;;;;;;4942143;28;86284;-52
2022/12/20 07:27:48;;;;;;;73.22;50.38;;;14.60;63.70;;;;;;4949511;28;85862;-52
2022/12/20 07:30:14;;;;;;;74.07;51.08;;;14.50;63.70;;;;;;4940678;28;92174;-51
2022/12/20 07:32:40;;;;;;;72.20;50.65;;;14.60;63.60;;;;;;4940293;28;88210;-51
2022/12/20 07:35:06;;;;;;;76.28;50.95;;;14.60;63.70;;;;;;4949777;28;85818;-49
2022/12/20 07:37:32;;;;;;;73.75;50.50;;;14.70;64.20;;;;;;4939755;28;87985;-50
2022/12/20 07:39:58;;;;;;;75.68;51.20;;;14.80;64.60;;;;;;4948745;28;88798;-51
2022/12/20 07:42:24;;;;;;;75.68;51.13;;;14.80;64.70;;;;;;4939630;28;85701;-54
2022/12/20 07:44:49;;;;;;;82.50;50.90;;;14.80;64.90;;;;;;4943790;28;86453;-49
2022/12/20 07:47:15;;;;;;;73.82;50.47;;;14.80;64.40;;;;;;4946625;28;88913;-52
2022/12/20 07:49:40;;;;;;;74.25;50.95;;;14.80;63.90;;;;;;4938552;28;85515;-51
2022/12/20 07:52:08;;;;;;;82.43;51.20;;;14.80;63.70;;;;;;4944370;28;85606;-51
2022/12/20 07:54:39;;;;;;;74.65;50.55;;;14.90;64.20;;;;;;4936702;28;88401;-49
2022/12/20 07:57:11;;;;;;;75.80;51.20;;;14.90;64.40;;;;;;4939574;28;86236;-52
2022/12/20 07:59:43;;;;;;;77.18;51.13;;;14.90;64.60;;;;;;4943179;28;85844;-52
2022/12/20 08:02:20;;;;;;;81.25;51.42;;;14.90;63.40;;;;;;5003091;27;86918;-47
2022/12/20 08:04:47;;;;;;;75.35;50.75;;;14.90;64.50;;;;;;5001923;27;85940;-51
2022/12/20 08:07:12;;;;;;;76.57;50.55;;;14.90;64.80;;;;;;4996917;27;88433;-48
2022/12/20 08:09:41;;;;;;;73.88;50.80;;;15.00;64.90;;;;;;5006703;27;85504;-49
2022/12/20 08:12:09;;;;;;;77.65;51.20;;;15.00;65.10;;;;;;5010299;27;85487;-50
2022/12/20 08:14:35;;;;;;;76.88;50.75;;;15.00;64.80;;;;;;5004789;27;86610;-46
2022/12/20 08:17:01;;;;;;;75.93;50.45;;;15.00;64.80;;;;;;4991218;28;85640;-47
2022/12/20 08:19:26;;;;;;;75.38;51.25;;;15.10;64.90;;;;;;5001614;28;85582;-53
2022/12/20 08:21:52;;;;;;;73.93;50.53;;;15.10;64.70;;;;;;5002144;27;85471;-48
2022/12/20 08:24:17;;;;;;;72.47;50.83;;;15.10;64.60;;;;;;5002266;27;86068;-50
2022/12/20 08:26:43;;;;;;;73.25;50.45;;;15.00;64.30;;;;;;5000176;27;85550;-49
2022/12/20 08:29:09;;;;;;;73.85;50.90;;;15.00;64.20;;;;;;5013444;27;90263;-54
2022/12/20 08:31:39;;;;;;;71.75;50.80;;;15.00;64.10;;;;;;5006246;27;85644;-51
2022/12/20 08:34:05;;;;;;;76.20;51.05;;;14.90;63.90;;;;;;4998334;27;86177;-50
2022/12/20 08:36:31;;;;;;;74.00;51.00;;;15.00;64.20;;;;;;4999283;27;91446;-51
2022/12/20 08:38:57;;;;;;;77.07;51.10;;;15.00;64.50;;;;;;5006394;27;85713;-48
2022/12/20 08:41:22;;;;;;;78.47;50.88;;;15.00;64.30;;;;;;5008082;27;85654;-51
2022/12/20 08:43:48;;;;;;;77.05;50.95;;;15.10;64.40;;;;;;5002137;28;87487;-49
2022/12/20 08:46:14;;;;;;;74.88;50.55;;;15.10;64.40;;;;;;5009617;27;85268;-52
2022/12/20 08:48:39;;;;;;;72.43;50.95;;;15.10;64.50;;;;;;5005002;27;85389;-46
2022/12/20 08:51:09;;;;;;;73.55;50.22;;;15.10;64.40;;;;;;5000981;27;85484;-48
2022/12/20 08:53:35;;;;;;;71.40;51.00;;;15.10;64.40;;;;;;4993168;27;91359;-53
2022/12/20 08:56:10;;;;;;;72.20;50.65;;;15.20;64.30;;;;;;5000289;27;87683;-47
2022/12/20 08:58:38;;;;;;;73.57;51.00;;;15.10;64.10;;;;;;5003454;27;85542;-50
2022/12/20 09:01:06;;;;;;;75.15;50.95;;;15.10;64.10;;;;;;5001294;27;87153;-51
2022/12/20 09:03:32;;;;;;;79.93;50.60;;;15.10;64.00;;;;;;4999400;27;85476;-51
2022/12/20 09:05:59;;;;;;;73.28;50.70;;;15.00;63.60;;;;;;5002941;27;85487;-51
2022/12/20 09:08:25;;;;;;;71.82;50.63;;;15.00;63.60;;;;;;4999671;27;86436;-53
2022/12/20 09:10:51;;;;;;;73.53;50.85;;;15.00;64.00;;;;;;4990593;27;87107;-53
2022/12/20 09:13:17;;;;;;;77.20;51.13;;;15.10;64.50;;;;;;4979468;27;85538;-52
2022/12/20 09:15:44;;;;;;;73.68;50.70;;;15.10;64.50;;;;;;4977055;28;85502;-51
2022/12/20 09:18:09;;;;;;;74.85;50.78;;;15.10;64.60;;;;;;4990947;28;88080;-49
2022/12/20 09:20:35;;;;;;;74.18;50.63;;;15.10;64.50;;;;;;4980306;28;86399;-50
2022/12/20 09:23:01;;;;;;;72.90;50.75;;;15.10;64.30;;;;;;4977264;28;86483;-53
2022/12/20 09:25:28;;;;;;;73.07;50.88;;;15.10;64.10;;;;;;4988406;28;85632;-51
2022/12/20 09:27:55;;;;;;;71.10;50.53;;;15.00;64.00;;;;;;4983729;28;85650;-47
2022/12/20 09:30:22;;;;;;;72.47;50.47;;;15.00;63.90;;;;;;4976241;28;87599;-48
2022/12/20 09:32:47;;;;;;;71.50;50.58;;;15.00;63.80;;;;;;4985988;28;85713;-51
2022/12/20 09:35:13;;;;;;;73.35;50.75;;;15.00;63.80;;;;;;4994459;28;85495;-52
2022/12/20 09:39:27;;;;;;;86.22;51.30;;;15.00;63.20;;;;;;5042004;27;83045;-53
2022/12/20 09:41:53;;;;;;;75.32;51.90;;;15.10;64.70;;;;;;5015359;27;85650;-49
2022/12/20 09:45:25;;;;;;;73.43;51.78;;;15.10;64.30;;;;;;5000071;28;85743;-48
2022/12/20 09:47:51;;;;;;;77.20;53.22;;;15.10;65.20;;;;;;4982615;28;85639;-49
2022/12/20 09:50:20;;;;;;;76.05;52.78;;;15.20;65.40;;;;;;4980703;28;85628;-49
2022/12/20 09:53:04;;;;;;;77.20;53.75;;;15.20;65.60;;;;;;4981194;27;85676;-51
2022/12/20 09:55:33;;;;;;;77.78;55.50;;;15.20;65.40;;;;;;4982632;28;85516;-50
2022/12/20 10:00:44;;;;;;;87.95;57.90;;;15.40;64.00;;;;;;4999324;27;82487;-51
2022/12/20 10:03:18;;;;;;;81.30;57.67;;;15.50;63.80;;;;;;5002435;27;88517;-51
2022/12/20 10:06:15;;;;;;;80.78;57.97;;;15.70;63.60;;;;;;4994938;27;85592;-48
2022/12/20 10:09:01;;;;;;;88.07;58.90;;;15.80;63.10;;;;;;5010184;27;85340;-52
2022/12/20 10:11:49;;;;;;;82.18;58.33;;;15.80;62.90;;;;;;4983171;27;88096;-47
2022/12/20 10:14:39;;;;;;;84.95;57.13;;;15.90;62.90;;;;;;4990176;27;87005;-52
2022/12/20 10:17:30;;;;;;;87.35;59.03;;;15.90;63.40;;;;;;4991404;27;86644;-51
2022/12/20 10:20:19;;;;;;;83.85;57.92;;;15.90;62.80;;;;;;4996947;27;85667;-54
2022/12/20 10:22:58;;;;;;;82.68;57.17;;;16.00;62.70;;;;;;4993795;27;85709;-50
2022/12/20 10:25:32;;;;;;;84.18;57.45;;;16.00;62.50;;;;;;4996632;27;85433;-54
2022/12/20 10:28:09;;;;;;;85.20;58.80;;;16.10;62.30;;;;;;4990781;27;87432;-53
2022/12/20 10:30:36;;;;;;;85.10;58.28;;;16.00;62.20;;;;;;4997325;27;86822;-48
2022/12/20 10:33:01;;;;;;;82.05;57.75;;;16.00;62.30;;;;;;4996284;27;85472;-52
2022/12/20 10:35:30;;;;;;;81.95;56.95;;;16.10;62.70;;;;;;4997600;27;85775;-51
2022/12/20 10:38:03;;;;;;;85.78;57.70;;;16.10;63.10;;;;;;4995841;27;88150;-49
2022/12/20 10:40:33;;;;;;;83.65;57.47;;;16.20;63.20;;;;;;4994870;27;85563;-52
2022/12/20 10:43:01;;;;;;;84.60;57.58;;;16.30;63.40;;;;;;4996707;27;85702;-49
2022/12/20 10:45:37;;;;;;;81.47;56.78;;;16.30;63.10;;;;;;4991812;27;87844;-51
2022/12/20 10:48:25;;;;;;;81.18;56.40;;;16.30;63.10;;;;;;4998009;27;86097;-49
2022/12/20 10:50:56;;;;;;;81.38;56.30;;;16.30;62.80;;;;;;5003234;27;86765;-52
2022/12/20 10:53:24;;;;;;;81.03;56.08;;;16.30;62.80;;;;;;4994289;27;85573;-46
2022/12/20 10:55:51;;;;;;;83.10;56.25;;;16.40;62.90;;;;;;4996926;27;85704;-50
2022/12/20 10:58:37;;;;;;;79.68;55.78;;;16.40;62.70;;;;;;5010738;27;85909;-53
2022/12/20 11:01:13;;;;;;;76.72;54.00;;;16.50;62.50;;;;;;4966240;28;89941;-55
2022/12/20 11:04:00;;;;;;;78.60;54.72;;;16.50;62.00;;;;;;4972613;28;87543;-56
2022/12/20 11:06:45;;;;;;;79.43;55.03;;;16.40;61.80;;;;;;4978525;28;86873;-54
2022/12/20 11:09:34;;;;;;;79.15;54.40;;;16.40;61.90;;;;;;4963801;28;86231;-53
2022/12/20 11:12:06;;;;;;;79.45;54.50;;;16.50;62.00;;;;;;4939213;28;85419;-54
2022/12/20 11:14:35;;;;;;;81.68;55.03;;;16.50;67.80;;;;;;4953531;28;87812;-55
2022/12/20 11:17:34;;;;;;;78.15;53.78;;;16.50;67.70;;;;;;4958940;28;87109;-52
2022/12/20 11:20:20;;;;;;;78.60;54.47;;;16.50;65.10;;;;;;4949074;28;86697;-55
2022/12/20 11:23:01;;;;;;;77.80;53.60;;;16.50;64.30;;;;;;4954261;28;86558;-53
2022/12/20 11:26:01;;;;;;;81.45;53.53;;;16.60;63.90;;;;;;4964567;28;87342;-55
2022/12/20 11:28:52;;;;;;;75.68;53.15;;;16.60;63.80;;;;;;4968459;28;85759;-54
2022/12/20 11:31:41;;;;;;;76.53;52.73;;;16.50;64.20;;;;;;4958681;28;88918;-53
2022/12/20 11:34:29;;;;;;;77.65;52.75;;;16.50;63.80;;;;;;4982573;28;86570;-52
2022/12/20 11:37:13;;;;;;;78.47;53.33;;;16.70;63.70;;;;;;4983807;28;86568;-58
2022/12/20 11:40:08;;;;;;;79.50;53.53;;;16.70;63.50;;;;;;4984602;28;86342;-55
2022/12/20 11:42:51;;;;;;;77.55;52.47;;;16.80;63.30;;;;;;4984921;28;85790;-54
2022/12/20 11:45:30;;;;;;;77.13;53.03;;;16.80;63.10;;;;;;4985096;28;91212;-50
2022/12/20 11:48:03;;;;;;;77.80;53.17;;;16.80;62.90;;;;;;4980556;28;85960;-51
2022/12/20 11:51:07;;;;;;;78.72;53.55;;;16.90;62.80;;;;;;4980125;28;86347;-51
2022/12/20 11:54:02;;;;;;;78.25;53.20;;;16.90;62.70;;;;;;4989195;28;85724;-55
2022/12/20 11:56:41;;;;;;;76.43;53.22;;;17.00;62.50;;;;;;4990179;28;86075;-49
2022/12/20 11:59:35;;;;;;;79.15;53.28;;;17.00;62.50;;;;;;4974906;28;86773;-51
2022/12/20 12:02:35;;;;;;;78.80;53.00;;;17.00;62.50;;;;;;4975041;28;86239;-53
2022/12/20 12:05:13;;;;;;;77.43;52.92;;;17.00;62.40;;;;;;4975273;27;87190;-54
2022/12/20 12:07:43;;;;;;;76.70;53.22;;;17.10;62.40;;;;;;4977693;28;85962;-50
2022/12/20 12:10:18;;;;;;;80.93;52.72;;;17.00;62.30;;;;;;4981591;28;85721;-49
2022/12/20 12:13:10;;;;;;;78.95;52.92;;;17.00;62.60;;;;;;4984346;28;85816;-48
2022/12/20 12:15:47;;;;;;;77.22;52.85;;;17.00;62.60;;;;;;4996250;27;86547;-49
2022/12/20 12:18:19;;;;;;;77.72;52.80;;;17.00;62.20;;;;;;4983725;28;86011;-52
2022/12/20 12:21:04;;;;;;;77.60;53.05;;;17.10;62.00;;;;;;4973541;28;87032;-55
2022/12/20 12:24:07;;;;;;;76.57;52.45;;;17.10;62.10;;;;;;4990841;28;85936;-51
2022/12/20 12:26:40;;;;;;;76.15;52.30;;;17.10;61.80;;;;;;4974728;28;86488;-52
2022/12/20 12:29:11;;;;;;;78.57;52.50;;;17.10;61.70;;;;;;4983175;28;86687;-53
2022/12/20 12:32:01;;;;;;;87.60;52.97;;;17.20;61.80;;;;;;4984172;28;85728;-48
2022/12/20 12:34:36;;;;;;;77.05;52.25;;;17.20;61.90;;;;;;4984843;28;85999;-53
2022/12/20 12:37:19;;;;;;;79.18;52.30;;;17.20;62.10;;;;;;5004250;27;86210;-52
2022/12/20 12:40:09;;;;;;;79.07;52.63;;;17.20;62.10;;;;;;4985123;28;85116;-51
2022/12/20 12:42:40;;;;;;;84.93;53.58;;;17.10;62.40;;;;;;4980405;28;85898;-53
2022/12/20 12:45:31;;;;;;;81.75;53.33;;;17.10;62.40;;;;;;4978985;28;90304;-52
2022/12/20 12:48:16;;;;;;;85.97;53.53;;;17.20;62.00;;;;;;4980182;28;85890;-53
2022/12/20 12:50:48;;;;;;;90.80;53.10;;;17.10;61.80;;;;;;4981715;28;85050;-48
2022/12/20 12:53:21;;;;;;;82.75;53.35;;;17.10;61.90;;;;;;4977797;28;87807;-49
2022/12/20 12:55:49;;;;;;;78.85;53.70;;;17.10;62.20;;;;;;4975843;28;87181;-49
2022/12/20 12:58:24;;;;;;;80.90;53.33;;;17.10;62.40;;;;;;4981803;28;86560;-50